Terminal Aerodrome Forecast
Issued by NWS

Home | Current Version | Previous Version | Text Only | Print | Product List | Glossary On
Versions: 1 2 3 4 5 6 7 8 9 10 11 12 13 14 15 16 17
912
FTAK31 PAJN 252320
TAFAPG
TAF
PAPG 252320Z 2600/2624 VRB05KT P6SM VCSH FEW010 SCT025 BKN035
     FM260900 VRB05KT 6SM -RA BR SCT015 OVC025
     FM261800 05005KT 4SM -RA BR BKN015 OVC025=

USA.gov is the U.S. government's official web portal to all federal, state and local government web resources and services.